Fedora — SLKU — position and weather

sailwx.info

Track history (hours):
 
Tides and Currents Weather Stations Pressure Air Temp Water Temp Dewpoint Dewpoint Depression Visibility Wind Speed Wind Dir Waves Ship Positions

Fedora

Last reported at 2015-May-29 05:32 UTC. Time now 2015-May-29 06:22 UTC.
Position N 31°04' E 122°26'.

Length 228 m; draft 9.5 m.

Type: Cargo ship. MMSI: 266259000.

Date/timePositionNaut miles runAvg speedWind from/ knotsBaromVisibWave heightAir tempDewpointWater temp
2015-May-29 05:32N 31°04' E 122°26'0 0.0
2015-May-29 04:26N 31°04' E 122°26'0 0.0
2015-May-29 03:32N 31°04' E 122°26'6 6.5
2015-May-29 02:34N 31°06' E 122°19'1813.3
2015-May-29 01:15N 31°15' E 122°01'1013.0
2015-May-29 00:30N 31°17' E 121°50'8 8.6
2015-May-28 23:33N 31°19' E 121°41'0 0.0
2015-May-28 22:22N 31°19' E 121°41'0 0.0
2015-May-28 21:22N 31°19' E 121°41'0 0.0
2015-May-28 20:16N 31°19' E 121°41'0 0.0
2015-May-28 19:16N 31°19' E 121°41'0 0.0
2015-May-28 18:16N 31°19' E 121°41'0 0.0
2015-May-28 17:28N 31°19' E 121°41'0 0.0
2015-May-28 15:22N 31°19' E 121°41'0 0.0
2015-May-28 14:28N 31°19' E 121°41'0 0.0
2015-May-28 13:10N 31°19' E 121°41'0 0.0
2015-May-28 12:22N 31°19' E 121°41'0 0.0
2015-May-28 11:33N 31°19' E 121°41'5 5.0
2015-May-28 10:33N 31°18' E 121°46'1513.1
2015-May-28 09:24N 31°14' E 122°03'28110.7
2015-May-27 07:04N 35°49' E 120°50'813.9
2015-May-27 06:32N 35°56' E 120°46'8 0.7
2015-May-26 19:04N 35°48' E 120°51'1314.1
2015-May-26 18:08N 35°39' E 121°02'1515.0
2015-May-26 17:09N 35°31' E 121°18'1115.2
2015-May-26 16:27N 35°25' E 121°28'1415.4
2015-May-26 15:33N 35°17' E 121°42'1715.6
2015-May-26 14:30N 35°08' E 121°59'1815.5
2015-May-26 13:20N 34°60' E 122°18'1215.5
2015-May-26 12:33N 34°54' E 122°31'3515.1
2015-May-26 10:13N 34°34' E 123°07'1015.4
2015-May-26 09:33N 34°28' E 123°17'2115.5
2015-May-26 08:11N 34°15' E 123°38'2716.8
2015-May-26 06:33N 34°02' E 124°07'2017.4
2015-May-26 05:26N 33°50' E 124°25'5316.4
2015-May-26 02:10N 33°21' E 125°19'914.9
2015-May-26 01:33N 33°16' E 125°28'1714.9
2015-May-26 00:23N 33°06' E 125°45'1814.8
2015-May-25 23:11N 32°56' E 126°03'1014.7
2015-May-25 22:32N 32°52' E 126°13'1715.3
2015-May-25 21:26N 32°43' E 126°30'1415.7
2015-May-25 20:31N 32°36' E 126°45'1715.7
2015-May-25 19:25N 32°26' E 127°01'1716.1
2015-May-25 18:20N 32°16' E 127°18'1416.1
2015-May-25 17:28N 32°09' E 127°32'37512.1
2015-May-24 10:33N 33°39' E 134°45'1514.5
2015-May-24 09:32N 33°52' E 134°53'1414.1
2015-May-24 08:33N 34°06' E 134°56'1413.8
2015-May-24 07:34N 34°19' E 134°59'1616.0
2015-May-24 06:34N 34°34' E 135°07'1111.1
2015-May-24 05:33N 34°35' E 134°53'7 6.9
2015-May-24 04:34N 34°40' E 134°48'3 0.5
2015-May-23 22:33N 34°43' E 134°51'3 3.3
2015-May-23 21:34N 34°40' E 134°49'0 0.0
2015-May-23 20:33N 34°40' E 134°49'0 0.0
2015-May-23 19:34N 34°40' E 134°49'0 0.0
2015-May-23 18:33N 34°40' E 134°49'0 0.0
2015-May-23 17:15N 34°40' E 134°49'0 0.0
2015-May-23 14:24N 34°40' E 134°49'0 0.0
2015-May-23 13:33N 34°40' E 134°49'0 0.0
2015-May-23 12:33N 34°40' E 134°49'0 0.1
2015-May-23 11:33N 34°40' E 134°49'4 3.5
2015-May-23 10:32N 34°38' E 134°52'1111.4
2015-May-23 09:33N 34°35' E 135°05'9 8.8
2015-May-23 08:33N 34°37' E 135°16'5 4.7
2015-May-23 07:34N 34°41' E 135°17'0 0.0
2015-May-23 06:28N 34°41' E 135°17'0 0.0
2015-May-23 05:28N 34°41' E 135°17'0 0.0
2015-May-23 04:34N 34°41' E 135°17'0 0.0
2015-May-23 03:34N 34°41' E 135°17'0 0.0
2015-May-23 02:34N 34°41' E 135°17'0 0.0
2015-May-23 01:28N 34°41' E 135°17'0 0.0
2015-May-23 00:33N 34°41' E 135°17'1 1.1
2015-May-22 23:33N 34°41' E 135°18'8 8.0
2015-May-22 22:34N 34°33' E 135°14'1616.2
2015-May-22 21:33N 34°21' E 135°01'1413.5
2015-May-22 20:33N 34°07' E 134°60'1714.0
2015-May-22 19:22N 33°51' E 134°59'184 6.3
2015-May-21 14:07N 34°30' E 138°36'2614.0
2015-May-21 12:16N 34°39' E 139°05'1115.4
2015-May-21 11:33N 34°48' E 139°14'1514.8
2015-May-21 10:34N 34°57' E 139°27'1514.5
2015-May-21 09:33N 35°06' E 139°42'1111.4
2015-May-21 08:33N 35°17' E 139°45'1111.2
2015-May-21 07:33N 35°28' E 139°42'1 0.6
2015-May-21 06:31N 35°28' E 139°41'0 0.0
2015-May-21 05:31N 35°28' E 139°41'0 0.0
2015-May-21 04:28N 35°28' E 139°41'0 0.0
2015-May-21 03:31N 35°28' E 139°41'0 0.0
2015-May-21 02:31N 35°28' E 139°41'0 0.0
2015-May-21 01:31N 35°28' E 139°41'0 0.0
2015-May-21 00:31N 35°28' E 139°41'0 0.0
2015-May-20 23:31N 35°28' E 139°41'0 0.0
2015-May-20 22:31N 35°28' E 139°41'4 4.5
2015-May-20 21:33N 35°25' E 139°46'1211.9
2015-May-20 20:33N 35°13' E 139°47'9 9.0
2015-May-20 19:33N 35°05' E 139°44'7 7.4
2015-May-20 18:33N 34°58' E 139°42'8 8.2
2015-May-20 17:33N 34°51' E 139°48'9 8.6
2015-May-20 16:31N 34°51' E 139°58'8 8.3
2015-May-20 15:33N 34°56' E 140°07'8 8.3
2015-May-20 14:33N 35°00' E 140°15'9 8.3
2015-May-20 13:29N 35°05' E 140°24'8 8.3
2015-May-20 12:33N 35°10' E 140°32'5 4.9
2015-May-20 11:33N 35°13' E 140°36'3 3.0
2015-May-20 10:33N 35°15' E 140°38'3 3.1
2015-May-20 09:33N 35°18' E 140°41'3 3.0
2015-May-20 08:33N 35°20' E 140°43'3 3.3
2015-May-20 07:33N 35°22' E 140°46'3 3.3
2015-May-20 06:32N 35°24' E 140°49'3 3.2
2015-May-20 05:33N 35°27' E 140°52'3 3.0
2015-May-20 04:32N 35°29' E 140°55'5 5.3
2015-May-20 03:31N 35°33' E 140°59'10 6.9
2015-May-20 02:08N 35°39' E 141°07'12 5.7
2015-May-20 00:00N 35°48' E 141°18'144 8.0 040 / 141003.510.8 0.519.0 19.9
2015-May-19 06:00N 37°30' E 143°24'   280 / 171002.2 5.4 1.016.0 17.0
Track history (hours):
 
Tides and Currents Weather Stations Pressure Air Temp Water Temp Dewpoint Dewpoint Depression Visibility Wind Speed Wind Dir Waves Ship Positions

Fedora

Last reported at 2015-May-29 05:32 UTC. Time now 2015-May-29 06:22 UTC.
Position N 31°04' E 122°26'.

Length 228 m; draft 9.5 m.

Type: Cargo ship. MMSI: 266259000.

Date/timePositionNaut miles runAvg speedWind from/ knotsBaromVisibWave heightAir tempDewpointWater temp
2015-May-29 05:32N 31°04' E 122°26'0 0.0
2015-May-29 04:26N 31°04' E 122°26'0 0.0
2015-May-29 03:32N 31°04' E 122°26'6 6.5
2015-May-29 02:34N 31°06' E 122°19'1813.3
2015-May-29 01:15N 31°15' E 122°01'1013.0
2015-May-29 00:30N 31°17' E 121°50'8 8.6
2015-May-28 23:33N 31°19' E 121°41'0 0.0
2015-May-28 22:22N 31°19' E 121°41'0 0.0
2015-May-28 21:22N 31°19' E 121°41'0 0.0
2015-May-28 20:16N 31°19' E 121°41'0 0.0
2015-May-28 19:16N 31°19' E 121°41'0 0.0
2015-May-28 18:16N 31°19' E 121°41'0 0.0
2015-May-28 17:28N 31°19' E 121°41'0 0.0
2015-May-28 15:22N 31°19' E 121°41'0 0.0
2015-May-28 14:28N 31°19' E 121°41'0 0.0
2015-May-28 13:10N 31°19' E 121°41'0 0.0
2015-May-28 12:22N 31°19' E 121°41'0 0.0
2015-May-28 11:33N 31°19' E 121°41'5 5.0
2015-May-28 10:33N 31°18' E 121°46'1513.1
2015-May-28 09:24N 31°14' E 122°03'28110.7
2015-May-27 07:04N 35°49' E 120°50'813.9
2015-May-27 06:32N 35°56' E 120°46'8 0.7
2015-May-26 19:04N 35°48' E 120°51'1314.1
2015-May-26 18:08N 35°39' E 121°02'1515.0
2015-May-26 17:09N 35°31' E 121°18'1115.2
2015-May-26 16:27N 35°25' E 121°28'1415.4
2015-May-26 15:33N 35°17' E 121°42'1715.6
2015-May-26 14:30N 35°08' E 121°59'1815.5
2015-May-26 13:20N 34°60' E 122°18'1215.5
2015-May-26 12:33N 34°54' E 122°31'3515.1
2015-May-26 10:13N 34°34' E 123°07'1015.4
2015-May-26 09:33N 34°28' E 123°17'2115.5
2015-May-26 08:11N 34°15' E 123°38'2716.8
2015-May-26 06:33N 34°02' E 124°07'2017.4
2015-May-26 05:26N 33°50' E 124°25'5316.4
2015-May-26 02:10N 33°21' E 125°19'914.9
2015-May-26 01:33N 33°16' E 125°28'1714.9
2015-May-26 00:23N 33°06' E 125°45'1814.8
2015-May-25 23:11N 32°56' E 126°03'1014.7
2015-May-25 22:32N 32°52' E 126°13'1715.3
2015-May-25 21:26N 32°43' E 126°30'1415.7
2015-May-25 20:31N 32°36' E 126°45'1715.7
2015-May-25 19:25N 32°26' E 127°01'1716.1
2015-May-25 18:20N 32°16' E 127°18'1416.1
2015-May-25 17:28N 32°09' E 127°32'37512.1
2015-May-24 10:33N 33°39' E 134°45'1514.5
2015-May-24 09:32N 33°52' E 134°53'1414.1
2015-May-24 08:33N 34°06' E 134°56'1413.8
2015-May-24 07:34N 34°19' E 134°59'1616.0
2015-May-24 06:34N 34°34' E 135°07'1111.1
2015-May-24 05:33N 34°35' E 134°53'7 6.9
2015-May-24 04:34N 34°40' E 134°48'3 0.5
2015-May-23 22:33N 34°43' E 134°51'3 3.3
2015-May-23 21:34N 34°40' E 134°49'0 0.0
2015-May-23 20:33N 34°40' E 134°49'0 0.0
2015-May-23 19:34N 34°40' E 134°49'0 0.0
2015-May-23 18:33N 34°40' E 134°49'0 0.0
2015-May-23 17:15N 34°40' E 134°49'0 0.0
2015-May-23 14:24N 34°40' E 134°49'0 0.0
2015-May-23 13:33N 34°40' E 134°49'0 0.0
2015-May-23 12:33N 34°40' E 134°49'0 0.1
2015-May-23 11:33N 34°40' E 134°49'4 3.5
2015-May-23 10:32N 34°38' E 134°52'1111.4
2015-May-23 09:33N 34°35' E 135°05'9 8.8
2015-May-23 08:33N 34°37' E 135°16'5 4.7
2015-May-23 07:34N 34°41' E 135°17'0 0.0
2015-May-23 06:28N 34°41' E 135°17'0 0.0
2015-May-23 05:28N 34°41' E 135°17'0 0.0
2015-May-23 04:34N 34°41' E 135°17'0 0.0
2015-May-23 03:34N 34°41' E 135°17'0 0.0
2015-May-23 02:34N 34°41' E 135°17'0 0.0
2015-May-23 01:28N 34°41' E 135°17'0 0.0
2015-May-23 00:33N 34°41' E 135°17'1 1.1
2015-May-22 23:33N 34°41' E 135°18'8 8.0
2015-May-22 22:34N 34°33' E 135°14'1616.2
2015-May-22 21:33N 34°21' E 135°01'1413.5
2015-May-22 20:33N 34°07' E 134°60'1714.0
2015-May-22 19:22N 33°51' E 134°59'184 6.3
2015-May-21 14:07N 34°30' E 138°36'2614.0
2015-May-21 12:16N 34°39' E 139°05'1115.4
2015-May-21 11:33N 34°48' E 139°14'1514.8
2015-May-21 10:34N 34°57' E 139°27'1514.5
2015-May-21 09:33N 35°06' E 139°42'1111.4
2015-May-21 08:33N 35°17' E 139°45'1111.2
2015-May-21 07:33N 35°28' E 139°42'1 0.6
2015-May-21 06:31N 35°28' E 139°41'0 0.0
2015-May-21 05:31N 35°28' E 139°41'0 0.0
2015-May-21 04:28N 35°28' E 139°41'0 0.0
2015-May-21 03:31N 35°28' E 139°41'0 0.0
2015-May-21 02:31N 35°28' E 139°41'0 0.0
2015-May-21 01:31N 35°28' E 139°41'0 0.0
2015-May-21 00:31N 35°28' E 139°41'0 0.0
2015-May-20 23:31N 35°28' E 139°41'0 0.0
2015-May-20 22:31N 35°28' E 139°41'4 4.5
2015-May-20 21:33N 35°25' E 139°46'1211.9
2015-May-20 20:33N 35°13' E 139°47'9 9.0
2015-May-20 19:33N 35°05' E 139°44'7 7.4
2015-May-20 18:33N 34°58' E 139°42'8 8.2
2015-May-20 17:33N 34°51' E 139°48'9 8.6
2015-May-20 16:31N 34°51' E 139°58'8 8.3
2015-May-20 15:33N 34°56' E 140°07'8 8.3
2015-May-20 14:33N 35°00' E 140°15'9 8.3
2015-May-20 13:29N 35°05' E 140°24'8 8.3
2015-May-20 12:33N 35°10' E 140°32'5 4.9
2015-May-20 11:33N 35°13' E 140°36'3 3.0
2015-May-20 10:33N 35°15' E 140°38'3 3.1
2015-May-20 09:33N 35°18' E 140°41'3 3.0
2015-May-20 08:33N 35°20' E 140°43'3 3.3
2015-May-20 07:33N 35°22' E 140°46'3 3.3
2015-May-20 06:32N 35°24' E 140°49'3 3.2
2015-May-20 05:33N 35°27' E 140°52'3 3.0
2015-May-20 04:32N 35°29' E 140°55'5 5.3
2015-May-20 03:31N 35°33' E 140°59'10 6.9
2015-May-20 02:08N 35°39' E 141°07'12 5.7
2015-May-20 00:00N 35°48' E 141°18'144 8.0 040 / 141003.510.8 0.519.0 19.9
2015-May-19 06:00N 37°30' E 143°24'   280 / 171002.2 5.4 1.016.0 17.0

Dump ship's entire track history